createdAt,value
2018-10-04T00:00:47.582Z,3.50
2018-10-04T00:03:14.751Z,3.27
2018-10-04T00:05:41.925Z,2.60
2018-10-04T00:08:09.085Z,3.17
2018-10-04T00:10:36.569Z,3.20
2018-10-04T00:13:03.696Z,2.70
2018-10-04T00:15:30.826Z,3.23
2018-10-04T00:17:57.949Z,3.23
2018-10-04T00:20:25.053Z,2.60
2018-10-04T00:22:52.165Z,3.27
2018-10-04T00:25:19.297Z,2.80
2018-10-04T00:27:46.402Z,3.40
2018-10-04T00:30:13.537Z,2.93
2018-10-04T00:32:40.775Z,2.90
2018-10-04T00:35:08.026Z,3.87
2018-10-04T00:37:35.225Z,3.23
2018-10-04T00:40:02.378Z,3.80
2018-10-04T00:42:29.502Z,3.00
2018-10-04T00:44:56.611Z,2.73
2018-10-04T00:47:23.745Z,3.93
2018-10-04T00:49:50.861Z,2.80
2018-10-04T00:52:18.005Z,3.07
2018-10-04T00:54:45.550Z,3.00
2018-10-04T00:57:12.839Z,2.73
2018-10-04T00:59:40.145Z,3.40
2018-10-04T01:02:07.934Z,3.70
2018-10-04T01:04:35.146Z,3.87
2018-10-04T01:07:02.281Z,2.90
2018-10-04T01:09:29.410Z,3.37
2018-10-04T01:11:56.565Z,3.00
2018-10-04T01:14:23.800Z,3.40
2018-10-04T01:16:50.916Z,2.80
2018-10-04T01:19:18.065Z,3.30
2018-10-04T01:21:45.218Z,2.77
2018-10-04T01:24:12.309Z,2.33
2018-10-04T01:26:39.717Z,3.47
2018-10-04T01:29:06.914Z,3.17
2018-10-04T01:31:34.241Z,2.93
2018-10-04T01:34:01.335Z,2.90
2018-10-04T01:36:28.466Z,3.03
2018-10-04T01:38:55.585Z,3.03
2018-10-04T01:41:22.699Z,3.50
2018-10-04T01:43:49.803Z,3.03
2018-10-04T01:46:16.916Z,2.93
2018-10-04T01:48:44.028Z,3.50
2018-10-04T01:51:11.179Z,2.87
2018-10-04T01:53:38.363Z,3.30
2018-10-04T01:56:05.563Z,3.13
2018-10-04T01:58:32.686Z,3.30
2018-10-04T02:00:59.806Z,3.60
2018-10-04T02:03:26.933Z,4.03
2018-10-04T02:05:55.262Z,3.27
2018-10-04T02:08:22.367Z,3.57
2018-10-04T02:10:49.494Z,3.73
2018-10-04T02:13:16.594Z,3.13
2018-10-04T02:15:43.908Z,3.80
2018-10-04T02:18:11.092Z,3.73
2018-10-04T02:20:38.303Z,3.40
2018-10-04T02:23:05.591Z,3.40
2018-10-04T02:25:32.716Z,4.13
2018-10-04T02:28:00.039Z,3.57
2018-10-04T02:30:27.207Z,3.53
2018-10-04T02:32:54.314Z,3.60
2018-10-04T02:35:21.410Z,3.50
2018-10-04T02:37:48.536Z,3.10
2018-10-04T02:40:15.638Z,3.70
2018-10-04T02:42:42.861Z,3.17
2018-10-04T02:45:10.005Z,2.80
2018-10-04T02:47:37.237Z,3.37
2018-10-04T02:50:04.450Z,3.43
2018-10-04T02:52:31.559Z,3.47
2018-10-04T02:55:04.406Z,3.87
2018-10-04T02:57:31.531Z,3.00
2018-10-04T02:59:58.614Z,3.40
2018-10-04T03:02:25.739Z,3.53
2018-10-04T03:04:52.866Z,3.47
2018-10-04T03:07:19.960Z,3.97
2018-10-04T03:09:47.074Z,3.47
2018-10-04T03:12:14.204Z,3.63
2018-10-04T03:14:41.406Z,3.27
2018-10-04T03:17:08.858Z,3.50
2018-10-04T03:19:35.967Z,3.50
2018-10-04T03:22:03.087Z,3.90
2018-10-04T03:24:30.219Z,3.90
2018-10-04T03:26:57.323Z,3.50
2018-10-04T03:29:24.432Z,4.03
2018-10-04T03:31:51.554Z,3.63
2018-10-04T03:34:18.663Z,3.87
2018-10-04T03:36:45.854Z,4.27
2018-10-04T03:39:13.047Z,3.63
2018-10-04T03:41:40.185Z,3.70
2018-10-04T03:44:07.358Z,3.57
2018-10-04T03:46:34.484Z,3.63
2018-10-04T03:49:01.591Z,3.73
2018-10-04T03:51:28.758Z,3.40
2018-10-04T03:53:55.858Z,3.70
2018-10-04T03:56:22.963Z,3.47
2018-10-04T03:58:50.051Z,4.03
2018-10-04T04:01:17.172Z,3.93
2018-10-04T04:03:44.352Z,3.93
2018-10-04T04:06:11.555Z,3.30
2018-10-04T04:08:38.740Z,4.10
2018-10-04T04:11:05.869Z,3.77
2018-10-04T04:13:32.999Z,3.70
2018-10-04T04:16:00.092Z,4.13
2018-10-04T04:18:27.291Z,4.20
2018-10-04T04:20:54.395Z,3.47
2018-10-04T04:23:21.511Z,3.83
2018-10-04T04:25:48.664Z,4.13
2018-10-04T04:28:15.795Z,4.43
2018-10-04T04:30:43.043Z,3.77
2018-10-04T04:33:10.162Z,4.10
2018-10-04T04:35:37.337Z,3.83
2018-10-04T04:38:05.001Z,4.33
2018-10-04T04:40:32.386Z,3.77
2018-10-04T04:42:59.528Z,3.57
2018-10-04T04:45:26.643Z,4.33
2018-10-04T04:47:53.745Z,4.47
2018-10-04T04:50:20.859Z,4.23
2018-10-04T04:52:48.001Z,3.70
2018-10-04T04:55:20.106Z,4.20
2018-10-04T04:57:47.963Z,4.60
2018-10-04T05:00:15.087Z,4.90
2018-10-04T05:02:42.496Z,4.33
2018-10-04T05:05:09.761Z,4.33
2018-10-04T05:07:36.891Z,4.27
2018-10-04T05:10:04.031Z,4.13
2018-10-04T05:12:31.144Z,4.03
2018-10-04T05:14:58.270Z,5.13
2018-10-04T05:17:25.665Z,7.23
2018-10-04T05:19:52.795Z,4.03
2018-10-04T05:22:19.914Z,3.70
2018-10-04T05:24:47.027Z,3.07
2018-10-04T05:27:14.335Z,3.33
2018-10-04T05:29:41.544Z,3.40
2018-10-04T05:32:09.067Z,3.83
2018-10-04T05:34:36.203Z,3.80
2018-10-04T05:37:03.356Z,3.83
2018-10-04T05:39:30.440Z,4.87
2018-10-04T05:41:57.563Z,4.53
2018-10-04T05:44:31.310Z,4.73
2018-10-04T05:46:58.424Z,4.07
2018-10-04T05:49:25.544Z,3.53
2018-10-04T05:51:52.924Z,4.17
2018-10-04T05:54:20.055Z,3.93
2018-10-04T05:56:47.177Z,4.30
2018-10-04T05:59:14.443Z,4.80
2018-10-04T06:01:41.823Z,4.73
2018-10-04T06:04:09.038Z,4.27
2018-10-04T06:06:36.164Z,5.10
2018-10-04T06:09:03.797Z,4.03
2018-10-04T06:11:30.899Z,3.87
2018-10-04T06:13:58.011Z,4.37
2018-10-04T06:16:25.132Z,3.93
2018-10-04T06:18:52.269Z,3.60
2018-10-04T06:21:19.439Z,3.80
2018-10-04T06:23:46.567Z,3.83
2018-10-04T06:26:13.762Z,3.83
2018-10-04T06:28:41.030Z,3.20
2018-10-04T06:31:08.247Z,4.00
2018-10-04T06:33:35.361Z,4.03
2018-10-04T06:36:02.878Z,3.47
2018-10-04T06:38:30.039Z,3.43
2018-10-04T06:40:57.211Z,4.17
2018-10-04T06:43:24.367Z,3.13
2018-10-04T06:45:51.482Z,3.33
2018-10-04T06:48:18.588Z,3.80
2018-10-04T06:50:45.703Z,4.10
2018-10-04T06:53:12.874Z,3.70
2018-10-04T06:55:40.079Z,3.60
2018-10-04T06:58:07.265Z,3.47
2018-10-04T07:00:34.348Z,3.93
2018-10-04T07:03:01.477Z,3.87
2018-10-04T07:05:28.621Z,3.17
2018-10-04T07:07:55.743Z,3.50
2018-10-04T07:10:22.843Z,4.00
2018-10-04T07:12:50.250Z,4.67
2018-10-04T07:15:17.387Z,4.53
2018-10-04T07:17:44.580Z,4.50
2018-10-04T07:20:11.841Z,4.40
2018-10-04T07:22:38.961Z,4.80
2018-10-04T07:25:06.135Z,4.73
2018-10-04T07:27:33.253Z,4.83
2018-10-04T07:30:00.399Z,4.27
2018-10-04T07:32:28.344Z,4.50
2018-10-04T07:34:55.531Z,4.37
2018-10-04T07:37:22.641Z,4.30
2018-10-04T07:39:49.723Z,4.43
2018-10-04T07:42:16.942Z,4.53
2018-10-04T07:44:44.022Z,4.37
2018-10-04T07:47:11.184Z,3.92
2018-10-04T07:49:38.539Z,7.20
2018-10-04T07:52:05.676Z,5.15
2018-10-04T07:54:32.790Z,4.37
2018-10-04T07:56:59.922Z,4.40
2018-10-04T07:59:27.079Z,7.63
2018-10-04T08:01:54.179Z,9.43
2018-10-04T08:04:21.326Z,4.92
2018-10-04T08:06:48.513Z,4.70
2018-10-04T08:09:15.639Z,5.27
2018-10-04T08:11:42.805Z,5.10
2018-10-04T08:14:10.532Z,4.30
2018-10-04T08:16:37.699Z,4.97
2018-10-04T08:19:04.830Z,5.13
2018-10-04T08:21:31.946Z,6.30
2018-10-04T08:23:59.037Z,5.17
2018-10-04T08:26:26.203Z,5.33
2018-10-04T08:28:53.347Z,5.57
2018-10-04T08:31:20.488Z,5.70
2018-10-04T08:33:47.747Z,5.40
2018-10-04T08:36:14.913Z,6.07
2018-10-04T08:38:42.087Z,5.20
2018-10-04T08:41:09.300Z,6.00
2018-10-04T08:43:36.402Z,5.40
2018-10-04T08:46:03.527Z,5.77
2018-10-04T08:48:30.627Z,5.43
2018-10-04T08:50:57.731Z,5.57
2018-10-04T08:53:24.826Z,6.23
2018-10-04T08:55:51.943Z,5.63
2018-10-04T08:58:19.076Z,6.37
2018-10-04T09:00:46.185Z,5.87
2018-10-04T09:03:13.630Z,6.23
2018-10-04T09:05:40.840Z,6.50
2018-10-04T09:08:08.494Z,5.77
2018-10-04T09:10:35.595Z,7.00
2018-10-04T09:13:02.717Z,6.27
2018-10-04T09:15:48.802Z,6.07
2018-10-04T09:18:16.099Z,5.40
2018-10-04T09:20:43.440Z,5.60
2018-10-04T09:23:10.583Z,5.10
2018-10-04T09:25:37.735Z,5.87
2018-10-04T09:28:09.505Z,6.67
2018-10-04T09:30:42.373Z,7.03
2018-10-04T09:33:09.631Z,6.13
2018-10-04T09:35:36.811Z,5.57
2018-10-04T09:38:03.935Z,7.57
2018-10-04T09:40:31.047Z,6.50
2018-10-04T09:42:58.159Z,5.63
2018-10-04T09:45:25.279Z,6.37
2018-10-04T09:47:56.635Z,5.87
2018-10-04T09:50:28.382Z,6.37
2018-10-04T09:52:55.803Z,6.43
2018-10-04T09:55:22.936Z,6.57
2018-10-04T09:57:50.139Z,5.73
2018-10-04T10:00:23.035Z,6.17
2018-10-04T10:02:59.744Z,6.30
2018-10-04T10:05:26.957Z,5.80
2018-10-04T10:07:54.015Z,6.27
2018-10-04T10:10:21.248Z,6.93
2018-10-04T10:12:48.527Z,6.87
2018-10-04T10:15:15.789Z,5.97
2018-10-04T10:17:43.163Z,6.37
2018-10-04T10:20:10.995Z,8.00
2018-10-04T10:22:38.119Z,6.10
2018-10-04T10:25:05.267Z,5.10
2018-10-04T10:27:32.679Z,5.63
2018-10-04T10:29:59.819Z,6.23
2018-10-04T10:32:27.320Z,5.67
2018-10-04T10:34:54.451Z,5.57
2018-10-04T10:37:21.684Z,5.23
2018-10-04T10:39:48.944Z,5.60
2018-10-04T10:42:16.147Z,5.83
2018-10-04T10:44:43.330Z,6.17
2018-10-04T10:47:10.463Z,5.70
2018-10-04T10:49:37.775Z,4.73
2018-10-04T10:52:05.037Z,4.77
2018-10-04T10:54:32.172Z,4.63
2018-10-04T10:56:59.290Z,4.67
2018-10-04T10:59:26.395Z,4.90
2018-10-04T11:01:53.790Z,5.50
2018-10-04T11:04:20.943Z,5.10
2018-10-04T11:06:48.092Z,4.10
2018-10-04T11:09:15.271Z,3.80
2018-10-04T11:11:42.445Z,5.07
2018-10-04T11:14:10.052Z,4.60
2018-10-04T11:16:37.158Z,4.80
2018-10-04T11:19:04.651Z,4.47
2018-10-04T11:21:31.802Z,4.53
2018-10-04T11:23:58.910Z,4.53
2018-10-04T11:26:26.102Z,5.20
2018-10-04T11:28:53.216Z,4.13
2018-10-04T11:31:20.347Z,4.30
2018-10-04T11:33:47.499Z,4.23
2018-10-04T11:36:14.751Z,3.50
2018-10-04T11:38:41.910Z,3.03
2018-10-04T11:41:09.031Z,3.60
2018-10-04T11:43:36.326Z,3.87
2018-10-04T11:46:04.390Z,4.33
2018-10-04T11:48:33.526Z,4.07
2018-10-04T11:51:00.687Z,4.67
2018-10-04T11:53:27.797Z,5.30
2018-10-04T11:55:54.955Z,5.40
2018-10-04T11:58:22.111Z,4.63
2018-10-04T12:00:49.299Z,4.77
2018-10-04T12:03:16.537Z,3.97
2018-10-04T12:05:43.766Z,4.40
2018-10-04T12:08:10.892Z,4.20
2018-10-04T12:10:38.007Z,2.93
2018-10-04T12:13:05.222Z,3.63
2018-10-04T12:15:32.490Z,3.10
2018-10-04T12:17:59.619Z,3.00
2018-10-04T12:20:26.755Z,4.03
2018-10-04T12:22:53.891Z,3.83
2018-10-04T12:25:21.111Z,5.20
2018-10-04T12:27:49.048Z,2.97
2018-10-04T12:30:16.273Z,3.10
2018-10-04T12:32:43.470Z,2.73
2018-10-04T12:35:10.573Z,2.80
2018-10-04T12:37:37.704Z,2.13
2018-10-04T12:40:04.823Z,2.37
2018-10-04T12:42:31.943Z,2.93
2018-10-04T12:44:59.039Z,2.57
2018-10-04T12:47:26.131Z,2.90
2018-10-04T12:49:53.269Z,2.73
2018-10-04T12:52:20.541Z,2.60
2018-10-04T12:54:47.652Z,2.80
2018-10-04T12:57:19.433Z,4.03
2018-10-04T12:59:46.851Z,3.23
2018-10-04T13:02:14.029Z,2.63
2018-10-04T13:04:41.179Z,2.80
2018-10-04T13:07:08.525Z,3.67
2018-10-04T13:09:35.473Z,3.60
2018-10-04T13:12:02.590Z,3.53
2018-10-04T13:14:29.687Z,3.50
2018-10-04T13:16:56.826Z,2.90
2018-10-04T13:19:23.939Z,3.17
2018-10-04T13:21:51.083Z,2.80
2018-10-04T13:24:18.294Z,3.13
2018-10-04T13:26:45.499Z,3.43
2018-10-04T13:29:12.656Z,2.87
2018-10-04T13:31:39.793Z,4.00
2018-10-04T13:34:06.950Z,2.50
2018-10-04T13:36:34.068Z,1.93
2018-10-04T13:39:01.223Z,2.40
2018-10-04T13:41:28.353Z,1.70
2018-10-04T13:43:55.483Z,2.00
2018-10-04T13:46:22.595Z,2.83
2018-10-04T13:48:49.755Z,3.13
2018-10-04T13:51:17.082Z,2.60
2018-10-04T13:53:44.294Z,1.80
2018-10-04T13:56:11.419Z,2.10
2018-10-04T13:58:38.503Z,2.60
2018-10-04T14:01:05.624Z,2.10
2018-10-04T14:03:32.755Z,2.10
2018-10-04T14:05:59.969Z,2.43
2018-10-04T14:08:26.990Z,2.17
2018-10-04T14:10:54.150Z,2.90
2018-10-04T14:13:21.359Z,2.80
2018-10-04T14:15:48.625Z,2.43
2018-10-04T14:18:15.929Z,2.70
2018-10-04T14:20:43.982Z,3.27
2018-10-04T14:23:11.095Z,2.33
2018-10-04T14:25:38.231Z,2.60
2018-10-04T14:28:05.391Z,2.40
2018-10-04T14:30:32.511Z,2.37
2018-10-04T14:32:59.611Z,2.87
2018-10-04T14:35:26.719Z,2.80
2018-10-04T14:37:53.826Z,2.17
2018-10-04T14:40:20.955Z,2.57
2018-10-04T14:42:48.167Z,2.03
2018-10-04T14:45:15.711Z,2.37
2018-10-04T14:47:42.881Z,2.20
2018-10-04T14:50:10.044Z,2.20
2018-10-04T14:52:37.186Z,2.47
2018-10-04T14:55:04.361Z,2.37
2018-10-04T14:57:31.519Z,2.17
2018-10-04T14:59:58.664Z,2.60
2018-10-04T15:02:25.822Z,2.73
2018-10-04T15:04:53.010Z,2.93
2018-10-04T15:07:20.487Z,2.50
2018-10-04T15:09:47.684Z,2.73
2018-10-04T15:12:14.855Z,2.47
2018-10-04T15:14:41.987Z,2.70
2018-10-04T15:17:09.148Z,3.07
2018-10-04T15:19:36.318Z,2.30
2018-10-04T15:22:03.572Z,2.47
2018-10-04T15:24:30.721Z,2.47
2018-10-04T15:26:57.978Z,2.57
2018-10-04T15:29:25.286Z,2.77
2018-10-04T15:31:52.557Z,2.60
2018-10-04T15:34:19.960Z,2.63
2018-10-04T15:36:47.239Z,3.17
2018-10-04T15:39:14.472Z,2.60
2018-10-04T15:41:41.591Z,2.70
2018-10-04T15:44:08.748Z,2.90
2018-10-04T15:46:35.991Z,2.73
2018-10-04T15:49:03.142Z,2.67
2018-10-04T15:51:30.311Z,3.63
2018-10-04T15:53:57.442Z,3.00
2018-10-04T15:56:24.783Z,3.47
2018-10-04T15:58:51.961Z,3.00
2018-10-04T16:01:19.204Z,2.90
2018-10-04T16:03:46.455Z,2.57
2018-10-04T16:06:13.604Z,2.97
2018-10-04T16:08:40.736Z,3.10
2018-10-04T16:11:07.879Z,3.30
2018-10-04T16:13:35.090Z,2.73
2018-10-04T16:16:02.175Z,3.07
2018-10-04T16:18:29.263Z,3.40
2018-10-04T16:20:56.390Z,2.93
2018-10-04T16:23:23.523Z,3.67
2018-10-04T16:25:50.756Z,3.20
2018-10-04T16:28:17.948Z,2.60
2018-10-04T16:30:45.199Z,3.33
2018-10-04T16:33:12.355Z,2.80
2018-10-04T16:35:39.511Z,2.93
2018-10-04T16:38:06.729Z,3.00
2018-10-04T16:40:33.852Z,4.00
2018-10-04T16:43:00.977Z,3.77
2018-10-04T16:45:28.115Z,3.50
2018-10-04T16:47:55.230Z,2.30
2018-10-04T16:50:22.419Z,2.63
2018-10-04T16:52:49.621Z,3.17
2018-10-04T16:55:16.920Z,3.63
2018-10-04T16:57:44.538Z,3.93
2018-10-04T17:00:11.691Z,3.20
2018-10-04T17:02:38.836Z,4.80
2018-10-04T17:05:05.983Z,5.07
2018-10-04T17:07:33.136Z,4.63
2018-10-04T17:10:00.268Z,3.60
2018-10-04T17:12:27.434Z,2.53
2018-10-04T17:14:54.748Z,2.40
2018-10-04T17:17:22.103Z,3.03
2018-10-04T17:19:49.344Z,2.33
2018-10-04T17:22:16.641Z,2.93
2018-10-04T17:24:43.845Z,2.87
2018-10-04T17:27:11.003Z,3.00
2018-10-04T17:29:38.267Z,2.80
2018-10-04T17:32:05.307Z,2.43
2018-10-04T17:34:32.465Z,2.30
2018-10-04T17:36:59.612Z,2.20
2018-10-04T17:39:26.987Z,2.43
2018-10-04T17:41:54.121Z,2.17
2018-10-04T17:44:21.275Z,2.47
2018-10-04T17:46:48.515Z,2.73
2018-10-04T17:49:15.716Z,2.27
2018-10-04T17:51:43.527Z,2.67
2018-10-04T17:54:10.740Z,2.13
2018-10-04T17:56:37.819Z,2.50
2018-10-04T17:59:04.975Z,2.10
2018-10-04T18:01:32.106Z,2.37
2018-10-04T18:03:59.231Z,2.93
2018-10-04T18:06:26.349Z,2.77
2018-10-04T18:08:53.470Z,2.43
2018-10-04T18:11:21.175Z,2.67
2018-10-04T18:13:48.415Z,2.57
2018-10-04T18:16:15.756Z,2.87
2018-10-04T18:18:43.076Z,2.83
2018-10-04T18:21:10.218Z,2.83
2018-10-04T18:23:37.339Z,2.50
2018-10-04T18:26:04.493Z,2.70
2018-10-04T18:28:31.872Z,2.20
2018-10-04T18:30:59.084Z,2.37
2018-10-04T18:33:26.220Z,3.00
2018-10-04T18:35:53.383Z,3.23
2018-10-04T18:38:20.499Z,3.30
2018-10-04T18:40:47.636Z,2.70
2018-10-04T18:43:14.766Z,3.10
2018-10-04T18:45:41.970Z,3.27
2018-10-04T18:48:09.079Z,3.77
2018-10-04T18:50:36.207Z,3.80
2018-10-04T18:53:03.374Z,3.50
2018-10-04T18:55:30.959Z,3.03
2018-10-04T18:57:58.147Z,2.67
2018-10-04T19:00:25.402Z,3.00
2018-10-04T19:02:52.599Z,2.97
2018-10-04T19:05:19.906Z,2.57
2018-10-04T19:07:47.092Z,3.37
2018-10-04T19:10:14.316Z,3.13
2018-10-04T19:12:41.508Z,3.67
2018-10-04T19:15:08.753Z,2.93
2018-10-04T19:17:35.921Z,2.90
2018-10-04T19:20:03.319Z,3.57
2018-10-04T19:22:30.611Z,3.13
2018-10-04T19:24:57.819Z,3.27
2018-10-04T19:27:25.016Z,2.67
2018-10-04T19:29:52.195Z,3.10
2018-10-04T19:32:19.426Z,3.50
2018-10-04T19:34:46.722Z,2.93
2018-10-04T19:37:13.930Z,2.80
2018-10-04T19:39:41.150Z,2.50
2018-10-04T19:42:09.367Z,2.60
2018-10-04T19:44:36.655Z,3.20
2018-10-04T19:47:04.300Z,3.10
2018-10-04T19:49:34.812Z,2.97
2018-10-04T19:52:02.150Z,2.53
2018-10-04T19:57:03.321Z,2.40
2018-10-04T19:59:34.785Z,2.80
2018-10-04T20:02:07.227Z,2.87
2018-10-04T20:04:37.350Z,2.83
2018-10-04T20:07:04.760Z,2.73
2018-10-04T20:09:34.493Z,2.80
2018-10-04T20:12:02.051Z,3.53
2018-10-04T20:14:29.237Z,2.83
2018-10-04T20:16:56.476Z,3.30
2018-10-04T20:19:23.649Z,3.23
2018-10-04T20:21:50.951Z,3.43
2018-10-04T20:24:18.144Z,2.90
2018-10-04T20:26:45.303Z,2.90
2018-10-04T20:29:12.548Z,3.90
2018-10-04T20:31:39.825Z,3.43
2018-10-04T20:34:07.119Z,3.17
2018-10-04T20:36:34.434Z,3.20
2018-10-04T20:39:01.671Z,2.90
2018-10-04T20:41:28.896Z,3.17
2018-10-04T20:43:56.124Z,3.10
2018-10-04T20:46:23.211Z,3.03
2018-10-04T20:48:50.356Z,3.03
2018-10-04T20:51:17.564Z,2.83
2018-10-04T20:53:44.738Z,2.90
2018-10-04T20:56:11.899Z,3.67
2018-10-04T20:58:39.084Z,2.90
2018-10-04T21:01:06.532Z,3.70
2018-10-04T21:03:33.774Z,5.37
2018-10-04T21:06:00.993Z,5.00
2018-10-04T21:08:28.139Z,3.67
2018-10-04T21:10:55.348Z,3.67
2018-10-04T21:13:22.491Z,3.87
2018-10-04T21:15:49.626Z,3.03
2018-10-04T21:18:16.775Z,3.37
2018-10-04T21:20:44.042Z,2.23
2018-10-04T21:23:11.334Z,2.80
2018-10-04T21:25:38.379Z,2.83
2018-10-04T21:28:05.603Z,2.60
2018-10-04T21:30:32.746Z,2.80
2018-10-04T21:32:59.875Z,2.67
2018-10-04T21:35:27.038Z,2.53
2018-10-04T21:37:54.383Z,3.20
2018-10-04T21:40:21.534Z,3.23
2018-10-04T21:42:48.695Z,2.87
2018-10-04T21:45:15.977Z,2.63
2018-10-04T21:47:43.050Z,2.70
2018-10-04T21:50:10.219Z,3.20
2018-10-04T21:52:37.450Z,2.60
2018-10-04T21:55:04.599Z,2.60
2018-10-04T21:57:31.748Z,2.70
2018-10-04T21:59:59.012Z,2.70
2018-10-04T22:02:26.176Z,3.07
2018-10-04T22:04:53.395Z,3.00
2018-10-04T22:07:20.542Z,3.10
2018-10-04T22:09:47.704Z,4.27
2018-10-04T22:12:14.822Z,3.23
2018-10-04T22:14:41.965Z,2.63
2018-10-04T22:17:09.110Z,3.77
2018-10-04T22:19:36.269Z,2.90
2018-10-04T22:22:03.402Z,3.30
2018-10-04T22:24:30.635Z,2.87
2018-10-04T22:26:57.767Z,3.07
2018-10-04T22:29:24.877Z,2.83
2018-10-04T22:31:52.010Z,2.20
2018-10-04T22:34:19.136Z,2.27
2018-10-04T22:36:46.250Z,3.23
2018-10-04T22:39:13.570Z,2.97
2018-10-04T22:41:40.730Z,3.67
2018-10-04T22:44:07.935Z,3.40
2018-10-04T22:46:35.296Z,3.43
2018-10-04T22:49:02.475Z,3.90
2018-10-04T22:51:29.607Z,3.23
2018-10-04T22:53:56.734Z,2.80
2018-10-04T22:56:23.846Z,2.90
2018-10-04T22:58:51.031Z,2.60
2018-10-04T23:01:18.145Z,2.90
2018-10-04T23:03:45.252Z,2.47
2018-10-04T23:06:12.378Z,2.80
2018-10-04T23:08:39.518Z,2.90
2018-10-04T23:11:06.715Z,2.40
2018-10-04T23:13:33.856Z,2.50
2018-10-04T23:16:01.010Z,3.23
2018-10-04T23:18:28.131Z,2.40
2018-10-04T23:20:55.248Z,2.50
2018-10-04T23:23:22.367Z,2.53
2018-10-04T23:25:49.494Z,2.67
2018-10-04T23:28:16.603Z,2.77
2018-10-04T23:30:43.741Z,2.70
2018-10-04T23:33:10.926Z,2.53
2018-10-04T23:35:38.110Z,2.93
2018-10-04T23:38:05.977Z,3.03
2018-10-04T23:40:33.170Z,3.10
2018-10-04T23:43:00.290Z,2.50
2018-10-04T23:45:27.455Z,3.23
2018-10-04T23:47:54.609Z,3.70
2018-10-04T23:50:21.743Z,3.00
2018-10-04T23:52:48.887Z,2.97
2018-10-04T23:55:16.028Z,3.27
2018-10-04T23:57:43.150Z,3.20
